sensor_id;sensor_type;location;lat;lon;timestamp;pressure;altitude;pressure_sealevel;temperature;humidity
51031;BME280;37058;41.442;23.240;2023-03-22T00:01:26;100054.22;;;11.11;90.27
51031;BME280;37058;41.442;23.240;2023-03-22T00:03:56;100060.22;;;11.07;89.87
51031;BME280;37058;41.442;23.240;2023-03-22T00:06:22;100054.19;;;11.05;89.97
51031;BME280;37058;41.442;23.240;2023-03-22T00:08:50;100060.75;;;10.99;90.18
51031;BME280;37058;41.442;23.240;2023-03-22T00:11:18;100063.72;;;10.98;90.92
51031;BME280;37058;41.442;23.240;2023-03-22T00:13:44;100050.03;;;10.93;91.43
51031;BME280;37058;41.442;23.240;2023-03-22T00:16:12;100054.66;;;10.87;91.77
51031;BME280;37058;41.442;23.240;2023-03-22T00:18:38;100055.44;;;10.82;92.48
51031;BME280;37058;41.442;23.240;2023-03-22T00:21:08;100060.84;;;10.77;92.99
51031;BME280;37058;41.442;23.240;2023-03-22T00:23:35;100057.25;;;10.67;93.47
51031;BME280;37058;41.442;23.240;2023-03-22T00:26:01;100058.25;;;10.60;93.81
51031;BME280;37058;41.442;23.240;2023-03-22T00:28:27;100059.38;;;10.59;93.84
51031;BME280;37058;41.442;23.240;2023-03-22T00:30:57;100053.03;;;10.54;94.12
51031;BME280;37058;41.442;23.240;2023-03-22T00:33:23;100054.97;;;10.53;94.37
51031;BME280;37058;41.442;23.240;2023-03-22T00:36:00;100048.41;;;10.54;94.31
51031;BME280;37058;41.442;23.240;2023-03-22T00:38:27;100042.66;;;10.51;94.80
51031;BME280;37058;41.442;23.240;2023-03-22T00:41:14;100052.22;;;10.53;95.07
51031;BME280;37058;41.442;23.240;2023-03-22T00:43:41;100048.66;;;10.53;94.96
51031;BME280;37058;41.442;23.240;2023-03-22T00:46:08;100054.69;;;10.55;94.89
51031;BME280;37058;41.442;23.240;2023-03-22T00:48:34;100054.41;;;10.51;94.46
51031;BME280;37058;41.442;23.240;2023-03-22T00:51:00;100061.19;;;10.49;95.46
51031;BME280;37058;41.442;23.240;2023-03-22T00:53:26;100052.47;;;10.52;95.71
51031;BME280;37058;41.442;23.240;2023-03-22T00:55:55;100046.25;;;10.56;95.69
51031;BME280;37058;41.442;23.240;2023-03-22T00:58:21;100046.81;;;10.58;96.18
51031;BME280;37058;41.442;23.240;2023-03-22T01:00:47;100050.41;;;10.64;96.51
51031;BME280;37058;41.442;23.240;2023-03-22T01:03:13;100047.94;;;10.68;96.07
51031;BME280;37058;41.442;23.240;2023-03-22T01:05:44;100045.25;;;10.73;95.64
51031;BME280;37058;41.442;23.240;2023-03-22T01:08:11;100050.19;;;10.76;95.65
51031;BME280;37058;41.442;23.240;2023-03-22T01:10:38;100054.28;;;10.78;95.33
51031;BME280;37058;41.442;23.240;2023-03-22T01:13:05;100047.75;;;10.79;95.49
51031;BME280;37058;41.442;23.240;2023-03-22T01:15:32;100044.50;;;10.82;95.60
51031;BME280;37058;41.442;23.240;2023-03-22T01:17:58;100051.31;;;10.80;95.26
51031;BME280;37058;41.442;23.240;2023-03-22T01:20:25;100047.78;;;10.84;95.18
51031;BME280;37058;41.442;23.240;2023-03-22T01:22:51;100047.78;;;10.84;95.05
51031;BME280;37058;41.442;23.240;2023-03-22T01:25:17;100038.50;;;10.85;95.04
51031;BME280;37058;41.442;23.240;2023-03-22T01:27:43;100043.72;;;10.87;95.02
51031;BME280;37058;41.442;23.240;2023-03-22T01:30:10;100040.66;;;10.83;95.42
51031;BME280;37058;41.442;23.240;2023-03-22T01:32:37;100030.31;;;10.85;95.54
51031;BME280;37058;41.442;23.240;2023-03-22T01:35:05;100023.50;;;10.88;95.59
51031;BME280;37058;41.442;23.240;2023-03-22T01:37:31;100032.25;;;10.90;95.84
51031;BME280;37058;41.442;23.240;2023-03-22T01:39:57;100030.88;;;10.88;95.69
51031;BME280;37058;41.442;23.240;2023-03-22T01:42:25;100029.53;;;10.90;95.81
51031;BME280;37058;41.442;23.240;2023-03-22T01:50:09;100029.03;;;11.03;94.50
51031;BME280;37058;41.442;23.240;2023-03-22T01:52:36;100020.84;;;11.03;94.39
51031;BME280;37058;41.442;23.240;2023-03-22T01:55:04;100018.66;;;11.00;94.41
51031;BME280;37058;41.442;23.240;2023-03-22T01:57:32;100032.31;;;11.00;93.87
51031;BME280;37058;41.442;23.240;2023-03-22T02:00:05;100024.44;;;11.04;94.25
51031;BME280;37058;41.442;23.240;2023-03-22T02:02:42;100027.94;;;10.99;94.08
51031;BME280;37058;41.442;23.240;2023-03-22T02:05:08;100035.31;;;10.99;94.17
51031;BME280;37058;41.442;23.240;2023-03-22T02:07:39;100031.22;;;10.96;94.44
51031;BME280;37058;41.442;23.240;2023-03-22T02:10:12;100032.84;;;10.97;94.52
51031;BME280;37058;41.442;23.240;2023-03-22T02:21:51;100042.47;;;11.05;93.68
51031;BME280;37058;41.442;23.240;2023-03-22T02:39:14;100054.09;;;10.90;95.17
51031;BME280;37058;41.442;23.240;2023-03-22T02:42:24;100063.94;;;10.91;95.00
51031;BME280;37058;41.442;23.240;2023-03-22T02:51:11;100075.47;;;10.98;94.80
51031;BME280;37058;41.442;23.240;2023-03-22T02:53:51;100074.13;;;11.01;94.67
51031;BME280;37058;41.442;23.240;2023-03-22T02:56:39;100077.16;;;11.04;94.35
51031;BME280;37058;41.442;23.240;2023-03-22T02:59:07;100079.09;;;11.04;93.92
51031;BME280;37058;41.442;23.240;2023-03-22T03:02:04;100075.00;;;11.06;93.83
51031;BME280;37058;41.442;23.240;2023-03-22T03:04:34;100079.38;;;11.07;93.63
51031;BME280;37058;41.442;23.240;2023-03-22T03:07:07;100082.91;;;11.08;93.66
51031;BME280;37058;41.442;23.240;2023-03-22T03:09:36;100081.56;;;11.11;93.38
51031;BME280;37058;41.442;23.240;2023-03-22T03:12:18;100078.00;;;11.10;93.04
51031;BME280;37058;41.442;23.240;2023-03-22T03:14:44;100090.56;;;11.11;93.19
51031;BME280;37058;41.442;23.240;2023-03-22T03:20:20;100082.66;;;11.10;93.12
51031;BME280;37058;41.442;23.240;2023-03-22T03:29:32;100085.91;;;11.01;93.39
51031;BME280;37058;41.442;23.240;2023-03-22T03:32:20;100083.44;;;11.05;93.68
51031;BME280;37058;41.442;23.240;2023-03-22T03:35:12;100084.00;;;11.07;93.23
51031;BME280;37058;41.442;23.240;2023-03-22T03:40:42;100081.44;;;10.90;95.25
51031;BME280;37058;41.442;23.240;2023-03-22T03:43:10;100081.97;;;10.87;95.25
51031;BME280;37058;41.442;23.240;2023-03-22T03:45:37;100086.34;;;10.88;95.23
51031;BME280;37058;41.442;23.240;2023-03-22T03:48:13;100089.63;;;10.90;95.38
51031;BME280;37058;41.442;23.240;2023-03-22T03:50:40;100086.38;;;10.93;96.04
51031;BME280;37058;41.442;23.240;2023-03-22T03:53:06;100091.84;;;10.93;96.18
51031;BME280;37058;41.442;23.240;2023-03-22T03:55:32;100083.63;;;10.93;96.34
51031;BME280;37058;41.442;23.240;2023-03-22T03:57:58;100089.66;;;10.95;96.28
51031;BME280;37058;41.442;23.240;2023-03-22T04:00:24;100090.22;;;10.97;95.66
51031;BME280;37058;41.442;23.240;2023-03-22T04:02:50;100099.53;;;10.96;96.20
51031;BME280;37058;41.442;23.240;2023-03-22T04:05:16;100098.13;;;10.94;96.54
51031;BME280;37058;41.442;23.240;2023-03-22T04:07:42;100100.56;;;10.90;97.26
51031;BME280;37058;41.442;23.240;2023-03-22T04:10:08;100098.34;;;10.87;97.86
51031;BME280;37058;41.442;23.240;2023-03-22T04:12:35;100099.44;;;10.86;98.50
51031;BME280;37058;41.442;23.240;2023-03-22T04:15:01;100105.16;;;10.84;98.72
51031;BME280;37058;41.442;23.240;2023-03-22T04:17:27;100102.69;;;10.83;98.77
51031;BME280;37058;41.442;23.240;2023-03-22T04:19:54;100102.69;;;10.83;99.15
51031;BME280;37058;41.442;23.240;2023-03-22T04:22:24;100115.28;;;10.84;99.09
51031;BME280;37058;41.442;23.240;2023-03-22T04:24:51;100101.88;;;10.82;99.45
51031;BME280;37058;41.442;23.240;2023-03-22T04:27:18;100104.84;;;10.81;99.42
51031;BME280;37058;41.442;23.240;2023-03-22T04:29:44;100105.41;;;10.83;99.19
51031;BME280;37058;41.442;23.240;2023-03-22T04:32:16;100116.34;;;10.83;99.06
51031;BME280;37058;41.442;23.240;2023-03-22T04:34:44;100118.81;;;10.84;98.80
51031;BME280;37058;41.442;23.240;2023-03-22T04:37:12;100113.38;;;10.84;98.95
51031;BME280;37058;41.442;23.240;2023-03-22T04:39:38;100122.38;;;10.85;99.05
51031;BME280;37058;41.442;23.240;2023-03-22T04:42:04;100121.81;;;10.83;99.09
51031;BME280;37058;41.442;23.240;2023-03-22T04:44:30;100129.22;;;10.88;98.97
51031;BME280;37058;41.442;23.240;2023-03-22T04:46:56;100129.50;;;10.91;98.50
51031;BME280;37058;41.442;23.240;2023-03-22T04:49:22;100139.94;;;10.94;98.34
51031;BME280;37058;41.442;23.240;2023-03-22T04:51:48;100140.22;;;10.98;98.20
51031;BME280;37058;41.442;23.240;2023-03-22T04:54:14;100145.44;;;10.99;98.17
51031;BME280;37058;41.442;23.240;2023-03-22T04:56:40;100153.66;;;10.99;98.01
51031;BME280;37058;41.442;23.240;2023-03-22T04:59:06;100158.59;;;11.02;98.09
51031;BME280;37058;41.442;23.240;2023-03-22T05:01:32;100156.41;;;11.04;98.24
51031;BME280;37058;41.442;23.240;2023-03-22T05:03:59;100150.66;;;11.06;97.86
51031;BME280;37058;41.442;23.240;2023-03-22T05:06:25;100147.44;;;11.09;97.38
51031;BME280;37058;41.442;23.240;2023-03-22T05:08:51;100152.63;;;11.11;97.45
51031;BME280;37058;41.442;23.240;2023-03-22T05:11:17;100164.69;;;11.15;97.09
51031;BME280;37058;41.442;23.240;2023-03-22T05:13:48;100163.59;;;11.16;96.95
51031;BME280;37058;41.442;23.240;2023-03-22T05:16:14;100162.25;;;11.18;96.81
51031;BME280;37058;41.442;23.240;2023-03-22T05:18:40;100163.63;;;11.21;96.91
51031;BME280;37058;41.442;23.240;2023-03-22T05:21:15;100160.63;;;11.22;96.90
51031;BME280;37058;41.442;23.240;2023-03-22T05:23:43;100164.19;;;11.23;97.02
51031;BME280;37058;41.442;23.240;2023-03-22T05:26:11;100165.56;;;11.25;96.35
51031;BME280;37058;41.442;23.240;2023-03-22T05:28:40;100163.13;;;11.29;96.13
51031;BME280;37058;41.442;23.240;2023-03-22T05:31:07;100161.50;;;11.28;95.70
51031;BME280;37058;41.442;23.240;2023-03-22T05:33:35;100164.81;;;11.35;95.49
51031;BME280;37058;41.442;23.240;2023-03-22T05:36:01;100161.03;;;11.41;95.49
51031;BME280;37058;41.442;23.240;2023-03-22T05:38:27;100158.84;;;11.43;95.30
51031;BME280;37058;41.442;23.240;2023-03-22T05:40:53;100169.81;;;11.48;94.66
51031;BME280;37058;41.442;23.240;2023-03-22T05:43:19;100176.69;;;11.56;94.32
51031;BME280;37058;41.442;23.240;2023-03-22T05:45:45;100174.84;;;11.67;93.73
51031;BME280;37058;41.442;23.240;2023-03-22T05:48:12;100177.09;;;11.75;93.14
51031;BME280;37058;41.442;23.240;2023-03-22T05:50:38;100182.84;;;11.79;92.61
51031;BME280;37058;41.442;23.240;2023-03-22T05:53:04;100188.34;;;11.84;92.14
51031;BME280;37058;41.442;23.240;2023-03-22T05:55:30;100190.81;;;11.85;91.15
51031;BME280;37058;41.442;23.240;2023-03-22T05:57:57;100189.75;;;11.86;90.80
51031;BME280;37058;41.442;23.240;2023-03-22T06:00:24;100199.66;;;11.98;90.83
51031;BME280;37058;41.442;23.240;2023-03-22T06:02:50;100194.75;;;12.05;90.31
51031;BME280;37058;41.442;23.240;2023-03-22T06:05:21;100196.69;;;12.09;90.11
51031;BME280;37058;41.442;23.240;2023-03-22T06:07:48;100199.72;;;12.13;90.33
51031;BME280;37058;41.442;23.240;2023-03-22T06:10:14;100199.44;;;12.20;90.20
51031;BME280;37058;41.442;23.240;2023-03-22T06:12:41;100201.38;;;12.19;89.66
51031;BME280;37058;41.442;23.240;2023-03-22T06:15:08;100203.00;;;12.20;89.10
51031;BME280;37058;41.442;23.240;2023-03-22T06:17:35;100214.81;;;12.26;89.44
51031;BME280;37058;41.442;23.240;2023-03-22T06:20:03;100217.56;;;12.31;89.76
51031;BME280;37058;41.442;23.240;2023-03-22T06:22:35;100218.13;;;12.38;89.47
51031;BME280;37058;41.442;23.240;2023-03-22T06:25:01;100218.44;;;12.47;88.58
51031;BME280;37058;41.442;23.240;2023-03-22T06:27:27;100220.66;;;12.60;87.66
51031;BME280;37058;41.442;23.240;2023-03-22T06:29:52;100219.06;;;12.79;87.11
51031;BME280;37058;41.442;23.240;2023-03-22T06:32:20;100218.81;;;13.22;86.19
51031;BME280;37058;41.442;23.240;2023-03-22T06:34:54;100231.41;;;13.49;83.59
51031;BME280;37058;41.442;23.240;2023-03-22T06:37:21;100232.75;;;13.72;82.99
51031;BME280;37058;41.442;23.240;2023-03-22T06:39:47;100225.03;;;13.79;81.78
51031;BME280;37058;41.442;23.240;2023-03-22T06:42:14;100229.66;;;13.94;81.16
51031;BME280;37058;41.442;23.240;2023-03-22T06:44:40;100224.84;;;14.30;79.77
51031;BME280;37058;41.442;23.240;2023-03-22T06:47:09;100226.69;;;17.44;69.21
51031;BME280;37058;41.442;23.240;2023-03-22T06:49:35;100228.00;;;20.23;57.60
51031;BME280;37058;41.442;23.240;2023-03-22T06:52:01;100223.00;;;22.33;50.74
51031;BME280;37058;41.442;23.240;2023-03-22T06:54:28;100224.28;;;22.44;49.71
51031;BME280;37058;41.442;23.240;2023-03-22T06:56:54;100212.53;;;25.94;40.78
51031;BME280;37058;41.442;23.240;2023-03-22T06:59:20;100217.44;;;28.61;35.38
51031;BME280;37058;41.442;23.240;2023-03-22T07:01:46;100212.41;;;30.93;30.56
51031;BME280;37058;41.442;23.240;2023-03-22T07:04:13;100214.63;;;32.47;27.71
51031;BME280;37058;41.442;23.240;2023-03-22T07:06:39;100208.13;;;33.52;26.28
51031;BME280;37058;41.442;23.240;2023-03-22T07:09:05;100210.06;;;34.63;24.98
51031;BME280;37058;41.442;23.240;2023-03-22T07:11:31;100216.34;;;35.43;23.96
51031;BME280;37058;41.442;23.240;2023-03-22T07:13:56;100215.81;;;36.50;22.23
51031;BME280;37058;41.442;23.240;2023-03-22T07:16:22;100215.88;;;36.90;21.70
51031;BME280;37058;41.442;23.240;2023-03-22T07:18:48;100209.13;;;33.28;24.90
51031;BME280;37058;41.442;23.240;2023-03-22T07:21:14;100205.19;;;29.81;29.82
51031;BME280;37058;41.442;23.240;2023-03-22T07:23:40;100206.31;;;27.50;32.63
51031;BME280;37058;41.442;23.240;2023-03-22T07:26:06;100211.34;;;26.11;35.42
51031;BME280;37058;41.442;23.240;2023-03-22T07:28:32;100208.19;;;25.09;37.03
51031;BME280;37058;41.442;23.240;2023-03-22T07:31:04;100206.28;;;24.32;38.24
51031;BME280;37058;41.442;23.240;2023-03-22T07:33:30;100204.13;;;23.43;40.33
51031;BME280;37058;41.442;23.240;2023-03-22T07:35:56;100209.22;;;22.87;41.27
51031;BME280;37058;41.442;23.240;2023-03-22T07:38:22;100208.88;;;22.67;41.12
51031;BME280;37058;41.442;23.240;2023-03-22T07:40:52;100206.84;;;21.96;42.88
51031;BME280;37058;41.442;23.240;2023-03-22T07:43:21;100207.22;;;20.95;44.94
51031;BME280;37058;41.442;23.240;2023-03-22T07:45:49;100208.91;;;20.30;46.70
51031;BME280;37058;41.442;23.240;2023-03-22T07:48:16;100206.22;;;19.90;47.84
51031;BME280;37058;41.442;23.240;2023-03-22T07:50:42;100204.94;;;19.65;49.14
51031;BME280;37058;41.442;23.240;2023-03-22T07:53:09;100209.88;;;19.46;49.38
51031;BME280;37058;41.442;23.240;2023-03-22T07:55:36;100209.25;;;19.26;49.65
51031;BME280;37058;41.442;23.240;2023-03-22T07:58:03;100209.84;;;18.92;49.59
51031;BME280;37058;41.442;23.240;2023-03-22T08:00:29;100215.94;;;18.80;50.40
51031;BME280;37058;41.442;23.240;2023-03-22T08:02:55;100201.72;;;18.96;50.67
51031;BME280;37058;41.442;23.240;2023-03-22T08:05:21;100213.31;;;19.20;50.42
51031;BME280;37058;41.442;23.240;2023-03-22T08:07:48;100206.19;;;19.28;49.54
51031;BME280;37058;41.442;23.240;2023-03-22T08:10:14;100204.31;;;19.37;49.57
51031;BME280;37058;41.442;23.240;2023-03-22T08:12:41;100200.34;;;19.30;49.20
51031;BME280;37058;41.442;23.240;2023-03-22T08:15:08;100203.47;;;19.37;48.33
51031;BME280;37058;41.442;23.240;2023-03-22T08:17:34;100203.16;;;19.38;47.90
51031;BME280;37058;41.442;23.240;2023-03-22T08:20:01;100197.56;;;19.30;48.30
51031;BME280;37058;41.442;23.240;2023-03-22T08:22:30;100198.97;;;18.96;48.36
51031;BME280;37058;41.442;23.240;2023-03-22T08:24:56;100207.44;;;18.77;48.45
51031;BME280;37058;41.442;23.240;2023-03-22T08:27:22;100206.50;;;18.31;47.77
51031;BME280;37058;41.442;23.240;2023-03-22T08:29:47;100208.69;;;17.93;49.08
51031;BME280;37058;41.442;23.240;2023-03-22T08:32:15;100207.50;;;17.66;50.50
51031;BME280;37058;41.442;23.240;2023-03-22T08:34:42;100216.09;;;17.65;49.13
51031;BME280;37058;41.442;23.240;2023-03-22T08:37:10;100205.41;;;17.44;49.12
51031;BME280;37058;41.442;23.240;2023-03-22T08:39:36;100203.41;;;17.17;50.39
51031;BME280;37058;41.442;23.240;2023-03-22T08:42:03;100207.94;;;16.94;51.27
51031;BME280;37058;41.442;23.240;2023-03-22T08:44:29;100213.44;;;16.94;52.95
51031;BME280;37058;41.442;23.240;2023-03-22T08:46:55;100218.34;;;16.97;53.42
51031;BME280;37058;41.442;23.240;2023-03-22T08:49:22;100217.53;;;16.97;53.18
51031;BME280;37058;41.442;23.240;2023-03-22T08:51:48;100218.56;;;17.01;53.42
51031;BME280;37058;41.442;23.240;2023-03-22T08:54:13;100222.13;;;17.01;53.58
51031;BME280;37058;41.442;23.240;2023-03-22T08:56:39;100215.75;;;16.87;54.37
51031;BME280;37058;41.442;23.240;2023-03-22T08:59:08;100219.94;;;16.84;54.81
51031;BME280;37058;41.442;23.240;2023-03-22T09:01:35;100216.38;;;16.84;54.98
51031;BME280;37058;41.442;23.240;2023-03-22T09:04:03;100216.50;;;16.74;55.58
51031;BME280;37058;41.442;23.240;2023-03-22T09:06:29;100222.50;;;16.76;55.83
51031;BME280;37058;41.442;23.240;2023-03-22T09:08:55;100214.19;;;16.81;56.42
51031;BME280;37058;41.442;23.240;2023-03-22T09:11:22;100216.44;;;16.79;55.75
51031;BME280;37058;41.442;23.240;2023-03-22T09:13:50;100217.59;;;16.73;57.12
51031;BME280;37058;41.442;23.240;2023-03-22T09:16:17;100212.06;;;16.73;57.51
51031;BME280;37058;41.442;23.240;2023-03-22T09:18:43;100211.47;;;16.76;56.85
51031;BME280;37058;41.442;23.240;2023-03-22T09:21:10;100210.44;;;16.72;57.62
51031;BME280;37058;41.442;23.240;2023-03-22T09:23:37;100203.19;;;16.76;57.94
51031;BME280;37058;41.442;23.240;2023-03-22T09:26:06;100210.31;;;16.82;57.47
51031;BME280;37058;41.442;23.240;2023-03-22T09:28:33;100212.75;;;16.83;57.29
51031;BME280;37058;41.442;23.240;2023-03-22T09:31:06;100213.72;;;16.93;57.06
51031;BME280;37058;41.442;23.240;2023-03-22T09:33:34;100212.31;;;16.95;57.08
51031;BME280;37058;41.442;23.240;2023-03-22T09:36:00;100212.69;;;16.88;57.32
51031;BME280;37058;41.442;23.240;2023-03-22T09:38:26;100215.06;;;16.95;57.67
51031;BME280;37058;41.442;23.240;2023-03-22T09:41:03;100220.22;;;17.02;57.67
51031;BME280;37058;41.442;23.240;2023-03-22T09:43:47;100214.03;;;17.24;57.37
51031;BME280;37058;41.442;23.240;2023-03-22T09:46:19;100213.41;;;17.46;57.34
51031;BME280;37058;41.442;23.240;2023-03-22T09:48:48;100220.97;;;17.54;56.11
51031;BME280;37058;41.442;23.240;2023-03-22T09:51:47;100218.34;;;17.63;55.62
51031;BME280;37058;41.442;23.240;2023-03-22T09:54:19;100218.59;;;17.80;54.94
51031;BME280;37058;41.442;23.240;2023-03-22T09:57:06;100211.34;;;17.98;55.08
51031;BME280;37058;41.442;23.240;2023-03-22T10:10:52;100210.13;;;18.54;52.60
51031;BME280;37058;41.442;23.240;2023-03-22T10:13:34;100207.94;;;18.65;52.98
51031;BME280;37058;41.442;23.240;2023-03-22T10:16:11;100217.06;;;18.79;52.31
51031;BME280;37058;41.442;23.240;2023-03-22T10:18:44;100205.75;;;18.90;51.96
51031;BME280;37058;41.442;23.240;2023-03-22T10:21:15;100206.06;;;18.88;51.54
51031;BME280;37058;41.442;23.240;2023-03-22T10:24:21;100203.97;;;18.94;50.29
51031;BME280;37058;41.442;23.240;2023-03-22T10:26:48;100206.41;;;18.87;49.79
51031;BME280;37058;41.442;23.240;2023-03-22T10:29:38;100203.28;;;18.88;49.80
51031;BME280;37058;41.442;23.240;2023-03-22T10:34:43;100202.47;;;18.88;49.30
51031;BME280;37058;41.442;23.240;2023-03-22T10:37:32;100198.91;;;18.87;49.32
51031;BME280;37058;41.442;23.240;2023-03-22T10:40:04;100194.47;;;18.86;49.51
51031;BME280;37058;41.442;23.240;2023-03-22T10:42:36;100191.16;;;18.75;48.96
51031;BME280;37058;41.442;23.240;2023-03-22T10:45:13;100186.94;;;18.78;49.68
51031;BME280;37058;41.442;23.240;2023-03-22T10:47:56;100185.31;;;18.77;49.58
51031;BME280;37058;41.442;23.240;2023-03-22T10:50:39;100188.97;;;18.72;49.38
51031;BME280;37058;41.442;23.240;2023-03-22T10:55:55;100180.75;;;18.58;49.53
51031;BME280;37058;41.442;23.240;2023-03-22T10:58:30;100175.81;;;18.55;49.21
51031;BME280;37058;41.442;23.240;2023-03-22T11:01:10;100178.78;;;18.59;50.35
51031;BME280;37058;41.442;23.240;2023-03-22T11:03:40;100175.41;;;18.62;50.54
51031;BME280;37058;41.442;23.240;2023-03-22T11:06:22;100174.25;;;18.63;49.42
51031;BME280;37058;41.442;23.240;2023-03-22T11:09:23;100169.88;;;18.62;49.00
51031;BME280;37058;41.442;23.240;2023-03-22T11:12:01;100159.44;;;18.59;49.72
51031;BME280;37058;41.442;23.240;2023-03-22T11:17:18;100161.94;;;18.69;48.13
51031;BME280;37058;41.442;23.240;2023-03-22T11:20:00;100155.50;;;18.74;48.71
51031;BME280;37058;41.442;23.240;2023-03-22T11:25:00;100150.03;;;18.82;48.25
51031;BME280;37058;41.442;23.240;2023-03-22T11:27:30;100137.09;;;18.92;48.68
51031;BME280;37058;41.442;23.240;2023-03-22T11:30:24;100143.09;;;18.94;48.18
51031;BME280;37058;41.442;23.240;2023-03-22T11:33:20;100144.94;;;18.98;47.31
51031;BME280;37058;41.442;23.240;2023-03-22T11:36:01;100136.97;;;18.97;46.94
51031;BME280;37058;41.442;23.240;2023-03-22T11:38:36;100135.31;;;18.96;47.87
51031;BME280;37058;41.442;23.240;2023-03-22T11:41:29;100129.66;;;19.01;47.98
51031;BME280;37058;41.442;23.240;2023-03-22T11:44:16;100130.78;;;19.00;47.43
51031;BME280;37058;41.442;23.240;2023-03-22T11:46:56;100134.19;;;18.97;47.06
51031;BME280;37058;41.442;23.240;2023-03-22T11:49:43;100129.47;;;18.97;46.56
51031;BME280;37058;41.442;23.240;2023-03-22T11:52:24;100121.47;;;18.96;47.25
51031;BME280;37058;41.442;23.240;2023-03-22T11:54:51;100129.25;;;18.94;47.11
51031;BME280;37058;41.442;23.240;2023-03-22T11:57:26;100129.22;;;18.85;47.71
51031;BME280;37058;41.442;23.240;2023-03-22T12:03:05;100132.84;;;18.72;47.66
51031;BME280;37058;41.442;23.240;2023-03-22T12:05:36;100133.06;;;18.75;47.93
51031;BME280;37058;41.442;23.240;2023-03-22T12:11:07;100130.03;;;18.86;48.26
51031;BME280;37058;41.442;23.240;2023-03-22T12:13:58;100113.00;;;18.92;48.24
51031;BME280;37058;41.442;23.240;2023-03-22T12:16:31;100109.75;;;18.99;47.69
51031;BME280;37058;41.442;23.240;2023-03-22T12:22:12;100106.97;;;18.90;46.73
51031;BME280;37058;41.442;23.240;2023-03-22T12:24:39;100109.75;;;18.99;47.37
51031;BME280;37058;41.442;23.240;2023-03-22T12:27:28;100106.75;;;19.09;46.87
51031;BME280;37058;41.442;23.240;2023-03-22T12:30:58;100102.53;;;19.12;46.48
51031;BME280;37058;41.442;23.240;2023-03-22T12:36:04;100099.00;;;19.20;46.05
51031;BME280;37058;41.442;23.240;2023-03-22T12:38:51;100099.84;;;19.29;45.27
51031;BME280;37058;41.442;23.240;2023-03-22T12:41:26;100094.16;;;19.34;44.39
51031;BME280;37058;41.442;23.240;2023-03-22T12:50:05;100085.66;;;19.22;45.02
51031;BME280;37058;41.442;23.240;2023-03-22T12:52:48;100085.47;;;19.18;45.45
51031;BME280;37058;41.442;23.240;2023-03-22T12:55:32;100093.63;;;19.23;45.22
51031;BME280;37058;41.442;23.240;2023-03-22T12:57:59;100081.91;;;19.26;45.32
51031;BME280;37058;41.442;23.240;2023-03-22T13:00:56;100090.22;;;19.26;45.19
51031;BME280;37058;41.442;23.240;2023-03-22T13:03:53;100084.88;;;19.30;44.87
51031;BME280;37058;41.442;23.240;2023-03-22T13:25:35;100073.44;;;19.23;44.51
51031;BME280;37058;41.442;23.240;2023-03-22T13:28:25;100078.66;;;19.24;45.49
51031;BME280;37058;41.442;23.240;2023-03-22T13:30:54;100068.94;;;19.36;45.52
51031;BME280;37058;41.442;23.240;2023-03-22T13:33:29;100069.44;;;19.46;45.12
51031;BME280;37058;41.442;23.240;2023-03-22T13:35:56;100061.50;;;19.54;43.65
51031;BME280;37058;41.442;23.240;2023-03-22T13:38:41;100064.56;;;19.52;43.97
51031;BME280;37058;41.442;23.240;2023-03-22T13:41:21;100060.78;;;19.39;45.13
51031;BME280;37058;41.442;23.240;2023-03-22T13:56:56;100052.66;;;19.43;43.74
51031;BME280;37058;41.442;23.240;2023-03-22T14:02:26;100063.31;;;19.18;44.34
51031;BME280;37058;41.442;23.240;2023-03-22T14:05:02;100059.13;;;18.98;44.57
51031;BME280;37058;41.442;23.240;2023-03-22T14:07:57;100061.25;;;18.93;44.57
51031;BME280;37058;41.442;23.240;2023-03-22T14:10:49;100058.78;;;18.91;44.07
51031;BME280;37058;41.442;23.240;2023-03-22T14:13:50;100053.84;;;18.79;44.57
51031;BME280;37058;41.442;23.240;2023-03-22T14:16:35;100064.13;;;18.88;45.78
51031;BME280;37058;41.442;23.240;2023-03-22T14:19:05;100057.81;;;18.96;41.61
51031;BME280;37058;41.442;23.240;2023-03-22T14:21:43;100062.09;;;19.02;41.96
51031;BME280;37058;41.442;23.240;2023-03-22T14:24:15;100063.44;;;19.04;42.11
51031;BME280;37058;41.442;23.240;2023-03-22T14:26:53;100061.16;;;19.07;41.49
51031;BME280;37058;41.442;23.240;2023-03-22T14:29:22;100070.56;;;19.05;41.35
51031;BME280;37058;41.442;23.240;2023-03-22T14:31:59;100076.94;;;19.06;41.22
51031;BME280;37058;41.442;23.240;2023-03-22T14:34:30;100079.38;;;19.08;41.11
51031;BME280;37058;41.442;23.240;2023-03-22T14:37:03;100084.84;;;18.99;41.26
51031;BME280;37058;41.442;23.240;2023-03-22T14:39:50;100079.59;;;18.89;42.02
51031;BME280;37058;41.442;23.240;2023-03-22T14:42:28;100082.34;;;18.89;42.08
51031;BME280;37058;41.442;23.240;2023-03-22T14:45:00;100080.59;;;18.93;41.99
51031;BME280;37058;41.442;23.240;2023-03-22T14:47:40;100077.47;;;18.86;42.18
51031;BME280;37058;41.442;23.240;2023-03-22T14:50:13;100083.47;;;18.79;42.98
51031;BME280;37058;41.442;23.240;2023-03-22T14:52:42;100077.09;;;18.78;43.80
51031;BME280;37058;41.442;23.240;2023-03-22T14:55:21;100092.28;;;18.67;44.67
51031;BME280;37058;41.442;23.240;2023-03-22T14:57:59;100083.50;;;18.65;45.82
51031;BME280;37058;41.442;23.240;2023-03-22T15:00:28;100095.50;;;18.60;45.46
51031;BME280;37058;41.442;23.240;2023-03-22T15:03:07;100086.00;;;18.53;43.96
51031;BME280;37058;41.442;23.240;2023-03-22T15:05:39;100097.88;;;18.53;43.55